sensor_id;sensor_type;location;lat;lon;timestamp;temperature;humidity
30628;DHT22;17394;50.890;4.724;2022-11-15T00:00:09;11.00;99.90
30628;DHT22;17394;50.890;4.724;2022-11-15T00:02:35;11.00;99.90
30628;DHT22;17394;50.890;4.724;2022-11-15T00:05:02;11.10;99.90
30628;DHT22;17394;50.890;4.724;2022-11-15T00:07:28;11.10;99.90
30628;DHT22;17394;50.890;4.724;2022-11-15T00:09:54;11.10;99.90
30628;DHT22;17394;50.890;4.724;2022-11-15T00:12:21;11.20;99.90
30628;DHT22;17394;50.890;4.724;2022-11-15T00:14:47;11.20;99.90
30628;DHT22;17394;50.890;4.724;2022-11-15T00:17:12;11.20;99.90
30628;DHT22;17394;50.890;4.724;2022-11-15T00:19:38;11.20;99.90
30628;DHT22;17394;50.890;4.724;2022-11-15T00:22:04;11.20;99.90
30628;DHT22;17394;50.890;4.724;2022-11-15T00:24:30;11.30;99.90
30628;DHT22;17394;50.890;4.724;2022-11-15T00:26:56;11.30;99.90
30628;DHT22;17394;50.890;4.724;2022-11-15T00:29:21;11.30;99.90
30628;DHT22;17394;50.890;4.724;2022-11-15T00:31:48;11.30;99.90
30628;DHT22;17394;50.890;4.724;2022-11-15T00:34:14;11.40;99.90
30628;DHT22;17394;50.890;4.724;2022-11-15T00:36:39;11.40;99.90
30628;DHT22;17394;50.890;4.724;2022-11-15T00:39:05;11.40;99.90
30628;DHT22;17394;50.890;4.724;2022-11-15T00:41:31;11.40;99.90
30628;DHT22;17394;50.890;4.724;2022-11-15T00:43:57;11.40;99.90
30628;DHT22;17394;50.890;4.724;2022-11-15T00:46:23;11.40;99.90
30628;DHT22;17394;50.890;4.724;2022-11-15T00:48:49;11.40;99.90
30628;DHT22;17394;50.890;4.724;2022-11-15T00:51:14;11.50;99.90
30628;DHT22;17394;50.890;4.724;2022-11-15T00:53:40;11.50;99.90
30628;DHT22;17394;50.890;4.724;2022-11-15T00:56:06;11.50;99.90
30628;DHT22;17394;50.890;4.724;2022-11-15T00:58:32;11.50;99.90
30628;DHT22;17394;50.890;4.724;2022-11-15T01:01:14;11.50;99.90
30628;DHT22;17394;50.890;4.724;2022-11-15T01:03:41;11.50;99.90
30628;DHT22;17394;50.890;4.724;2022-11-15T01:06:08;11.50;99.90
30628;DHT22;17394;50.890;4.724;2022-11-15T01:08:34;11.60;99.90
30628;DHT22;17394;50.890;4.724;2022-11-15T01:11:09;11.60;99.90
30628;DHT22;17394;50.890;4.724;2022-11-15T01:13:36;11.60;99.90
30628;DHT22;17394;50.890;4.724;2022-11-15T01:16:11;11.60;99.90
30628;DHT22;17394;50.890;4.724;2022-11-15T01:18:37;11.60;99.90
30628;DHT22;17394;50.890;4.724;2022-11-15T01:21:08;11.60;99.90
30628;DHT22;17394;50.890;4.724;2022-11-15T01:23:34;11.60;99.90
30628;DHT22;17394;50.890;4.724;2022-11-15T01:26:02;11.60;99.90
30628;DHT22;17394;50.890;4.724;2022-11-15T01:28:33;11.70;99.90
30628;DHT22;17394;50.890;4.724;2022-11-15T01:31:00;11.70;99.90
30628;DHT22;17394;50.890;4.724;2022-11-15T01:33:27;11.70;99.90
30628;DHT22;17394;50.890;4.724;2022-11-15T01:35:53;11.70;99.90
30628;DHT22;17394;50.890;4.724;2022-11-15T01:38:19;11.80;99.90
30628;DHT22;17394;50.890;4.724;2022-11-15T01:40:45;11.80;99.90
30628;DHT22;17394;50.890;4.724;2022-11-15T01:45:51;11.90;99.90
30628;DHT22;17394;50.890;4.724;2022-11-15T01:48:19;11.90;99.90
30628;DHT22;17394;50.890;4.724;2022-11-15T01:50:45;11.90;99.90
30628;DHT22;17394;50.890;4.724;2022-11-15T01:53:11;12.00;99.90
30628;DHT22;17394;50.890;4.724;2022-11-15T01:55:37;11.90;99.90
30628;DHT22;17394;50.890;4.724;2022-11-15T01:58:04;12.00;99.90
30628;DHT22;17394;50.890;4.724;2022-11-15T02:00:31;12.00;99.90
30628;DHT22;17394;50.890;4.724;2022-11-15T02:02:57;12.00;99.90
30628;DHT22;17394;50.890;4.724;2022-11-15T02:05:23;12.00;99.90
30628;DHT22;17394;50.890;4.724;2022-11-15T02:07:49;12.10;99.90
30628;DHT22;17394;50.890;4.724;2022-11-15T02:10:20;12.10;99.90
30628;DHT22;17394;50.890;4.724;2022-11-15T02:12:47;12.10;99.90
30628;DHT22;17394;50.890;4.724;2022-11-15T02:15:13;12.10;99.90
30628;DHT22;17394;50.890;4.724;2022-11-15T02:20:43;12.10;99.90
30628;DHT22;17394;50.890;4.724;2022-11-15T02:26:07;12.10;99.90
30628;DHT22;17394;50.890;4.724;2022-11-15T02:31:41;12.10;99.90
30628;DHT22;17394;50.890;4.724;2022-11-15T02:39:41;12.10;99.90
30628;DHT22;17394;50.890;4.724;2022-11-15T02:42:18;12.10;99.90
30628;DHT22;17394;50.890;4.724;2022-11-15T02:45:06;12.10;99.90
30628;DHT22;17394;50.890;4.724;2022-11-15T02:47:40;12.00;99.90
30628;DHT22;17394;50.890;4.724;2022-11-15T02:50:10;12.10;99.90
30628;DHT22;17394;50.890;4.724;2022-11-15T02:52:36;12.10;99.90
30628;DHT22;17394;50.890;4.724;2022-11-15T02:55:02;12.10;99.90
30628;DHT22;17394;50.890;4.724;2022-11-15T02:57:48;12.10;99.90
30628;DHT22;17394;50.890;4.724;2022-11-15T03:00:20;12.10;99.90
30628;DHT22;17394;50.890;4.724;2022-11-15T03:09:07;12.10;99.90
30628;DHT22;17394;50.890;4.724;2022-11-15T03:11:42;12.10;99.90
30628;DHT22;17394;50.890;4.724;2022-11-15T03:14:29;12.10;99.90
30628;DHT22;17394;50.890;4.724;2022-11-15T03:19:46;12.10;99.90
30628;DHT22;17394;50.890;4.724;2022-11-15T03:22:16;12.10;99.90
30628;DHT22;17394;50.890;4.724;2022-11-15T03:24:45;12.10;99.90
30628;DHT22;17394;50.890;4.724;2022-11-15T03:27:16;12.10;99.90
30628;DHT22;17394;50.890;4.724;2022-11-15T03:29:50;12.00;99.90
30628;DHT22;17394;50.890;4.724;2022-11-15T03:32:21;12.00;99.90
30628;DHT22;17394;50.890;4.724;2022-11-15T03:34:53;12.00;99.90
30628;DHT22;17394;50.890;4.724;2022-11-15T03:37:27;12.00;99.90
30628;DHT22;17394;50.890;4.724;2022-11-15T03:39:55;12.00;99.90
30628;DHT22;17394;50.890;4.724;2022-11-15T03:42:31;12.00;99.90
30628;DHT22;17394;50.890;4.724;2022-11-15T03:47:36;12.00;99.90
30628;DHT22;17394;50.890;4.724;2022-11-15T03:50:11;12.00;99.90
30628;DHT22;17394;50.890;4.724;2022-11-15T03:52:40;12.00;99.90
30628;DHT22;17394;50.890;4.724;2022-11-15T03:55:10;12.00;99.90
30628;DHT22;17394;50.890;4.724;2022-11-15T03:57:37;12.00;99.90
30628;DHT22;17394;50.890;4.724;2022-11-15T04:00:04;12.00;99.90
30628;DHT22;17394;50.890;4.724;2022-11-15T04:02:30;12.00;99.90
30628;DHT22;17394;50.890;4.724;2022-11-15T04:04:56;12.00;99.90
30628;DHT22;17394;50.890;4.724;2022-11-15T04:07:22;11.90;99.90
30628;DHT22;17394;50.890;4.724;2022-11-15T04:09:48;11.90;99.90
30628;DHT22;17394;50.890;4.724;2022-11-15T04:12:30;11.90;99.90
30628;DHT22;17394;50.890;4.724;2022-11-15T04:15:00;11.90;99.90
30628;DHT22;17394;50.890;4.724;2022-11-15T04:17:54;11.90;99.90
30628;DHT22;17394;50.890;4.724;2022-11-15T04:20:32;11.90;99.90
30628;DHT22;17394;50.890;4.724;2022-11-15T04:23:19;11.90;99.90
30628;DHT22;17394;50.890;4.724;2022-11-15T04:26:12;11.80;99.90
30628;DHT22;17394;50.890;4.724;2022-11-15T04:28:40;11.80;99.90
30628;DHT22;17394;50.890;4.724;2022-11-15T04:31:26;11.80;99.90
30628;DHT22;17394;50.890;4.724;2022-11-15T04:33:52;11.80;99.90
30628;DHT22;17394;50.890;4.724;2022-11-15T04:36:18;11.70;99.90
30628;DHT22;17394;50.890;4.724;2022-11-15T04:39:03;11.70;99.90
30628;DHT22;17394;50.890;4.724;2022-11-15T04:41:29;11.70;99.90
30628;DHT22;17394;50.890;4.724;2022-11-15T04:43:55;11.70;99.90
30628;DHT22;17394;50.890;4.724;2022-11-15T04:46:22;11.70;99.90
30628;DHT22;17394;50.890;4.724;2022-11-15T04:48:48;11.60;99.90
30628;DHT22;17394;50.890;4.724;2022-11-15T04:51:13;11.60;99.90
30628;DHT22;17394;50.890;4.724;2022-11-15T04:53:39;11.60;99.90
30628;DHT22;17394;50.890;4.724;2022-11-15T04:56:05;11.60;99.90
30628;DHT22;17394;50.890;4.724;2022-11-15T04:58:31;11.50;99.90
30628;DHT22;17394;50.890;4.724;2022-11-15T05:00:57;11.50;99.90
30628;DHT22;17394;50.890;4.724;2022-11-15T05:03:22;11.50;99.90
30628;DHT22;17394;50.890;4.724;2022-11-15T05:06:07;11.40;99.90
30628;DHT22;17394;50.890;4.724;2022-11-15T05:08:32;11.40;99.90
30628;DHT22;17394;50.890;4.724;2022-11-15T05:10:58;11.30;99.90
30628;DHT22;17394;50.890;4.724;2022-11-15T05:13:24;11.30;99.90
30628;DHT22;17394;50.890;4.724;2022-11-15T05:15:50;11.20;99.90
30628;DHT22;17394;50.890;4.724;2022-11-15T05:18:16;11.20;99.90
30628;DHT22;17394;50.890;4.724;2022-11-15T05:20:41;11.20;99.90
30628;DHT22;17394;50.890;4.724;2022-11-15T05:23:07;11.10;99.90
30628;DHT22;17394;50.890;4.724;2022-11-15T05:25:33;11.10;99.90
30628;DHT22;17394;50.890;4.724;2022-11-15T05:28:01;11.10;99.90
30628;DHT22;17394;50.890;4.724;2022-11-15T05:30:26;11.10;99.90
30628;DHT22;17394;50.890;4.724;2022-11-15T05:32:53;11.10;99.90
30628;DHT22;17394;50.890;4.724;2022-11-15T05:35:26;11.10;99.90
30628;DHT22;17394;50.890;4.724;2022-11-15T05:37:55;11.00;99.90
30628;DHT22;17394;50.890;4.724;2022-11-15T05:40:20;11.00;99.90
30628;DHT22;17394;50.890;4.724;2022-11-15T05:42:47;11.00;99.90
30628;DHT22;17394;50.890;4.724;2022-11-15T05:45:13;11.00;99.90
30628;DHT22;17394;50.890;4.724;2022-11-15T05:47:39;11.00;99.90
30628;DHT22;17394;50.890;4.724;2022-11-15T05:50:06;10.90;99.90
30628;DHT22;17394;50.890;4.724;2022-11-15T05:52:35;10.90;99.90
30628;DHT22;17394;50.890;4.724;2022-11-15T05:55:03;10.90;99.90
30628;DHT22;17394;50.890;4.724;2022-11-15T05:57:30;10.80;99.90
30628;DHT22;17394;50.890;4.724;2022-11-15T05:59:56;10.70;99.90
30628;DHT22;17394;50.890;4.724;2022-11-15T06:02:23;10.70;99.90
30628;DHT22;17394;50.890;4.724;2022-11-15T06:04:48;10.60;99.90
30628;DHT22;17394;50.890;4.724;2022-11-15T06:07:14;10.50;99.90
30628;DHT22;17394;50.890;4.724;2022-11-15T06:09:40;10.50;99.90
30628;DHT22;17394;50.890;4.724;2022-11-15T06:12:06;10.50;99.90
30628;DHT22;17394;50.890;4.724;2022-11-15T06:14:32;10.40;99.90
30628;DHT22;17394;50.890;4.724;2022-11-15T06:16:58;10.40;99.90
30628;DHT22;17394;50.890;4.724;2022-11-15T06:19:24;10.40;99.90
30628;DHT22;17394;50.890;4.724;2022-11-15T06:21:50;10.40;99.90
30628;DHT22;17394;50.890;4.724;2022-11-15T06:24:16;10.30;99.90
30628;DHT22;17394;50.890;4.724;2022-11-15T06:26:41;10.30;99.90
30628;DHT22;17394;50.890;4.724;2022-11-15T06:29:07;10.20;99.90
30628;DHT22;17394;50.890;4.724;2022-11-15T06:31:34;10.10;99.90
30628;DHT22;17394;50.890;4.724;2022-11-15T06:34:00;10.00;99.90
30628;DHT22;17394;50.890;4.724;2022-11-15T06:36:26;10.00;99.90
30628;DHT22;17394;50.890;4.724;2022-11-15T06:38:51;9.90;99.90
30628;DHT22;17394;50.890;4.724;2022-11-15T06:41:17;9.90;99.90
30628;DHT22;17394;50.890;4.724;2022-11-15T06:43:43;9.80;99.90
30628;DHT22;17394;50.890;4.724;2022-11-15T06:46:09;9.80;99.90
30628;DHT22;17394;50.890;4.724;2022-11-15T06:48:35;9.70;99.90
30628;DHT22;17394;50.890;4.724;2022-11-15T06:51:03;9.70;99.90
30628;DHT22;17394;50.890;4.724;2022-11-15T06:53:30;9.60;99.90
30628;DHT22;17394;50.890;4.724;2022-11-15T06:56:06;9.60;99.90
30628;DHT22;17394;50.890;4.724;2022-11-15T06:58:33;9.50;99.90
30628;DHT22;17394;50.890;4.724;2022-11-15T07:01:08;9.40;99.90
30628;DHT22;17394;50.890;4.724;2022-11-15T07:03:41;9.40;99.90
30628;DHT22;17394;50.890;4.724;2022-11-15T07:06:09;9.40;99.90
30628;DHT22;17394;50.890;4.724;2022-11-15T07:08:35;9.30;99.90
30628;DHT22;17394;50.890;4.724;2022-11-15T07:11:03;9.30;99.90
30628;DHT22;17394;50.890;4.724;2022-11-15T07:13:31;9.30;99.90
30628;DHT22;17394;50.890;4.724;2022-11-15T07:16:08;9.30;99.90
30628;DHT22;17394;50.890;4.724;2022-11-15T07:18:38;9.30;99.90
30628;DHT22;17394;50.890;4.724;2022-11-15T07:21:07;9.30;99.90
30628;DHT22;17394;50.890;4.724;2022-11-15T07:23:35;9.30;99.90
30628;DHT22;17394;50.890;4.724;2022-11-15T07:26:01;9.30;99.90
30628;DHT22;17394;50.890;4.724;2022-11-15T07:28:27;9.30;99.90
30628;DHT22;17394;50.890;4.724;2022-11-15T07:30:53;9.20;99.90
30628;DHT22;17394;50.890;4.724;2022-11-15T07:33:19;9.20;99.90
30628;DHT22;17394;50.890;4.724;2022-11-15T07:35:45;9.30;99.90
30628;DHT22;17394;50.890;4.724;2022-11-15T07:38:14;9.30;99.90
30628;DHT22;17394;50.890;4.724;2022-11-15T07:40:56;9.30;99.90
30628;DHT22;17394;50.890;4.724;2022-11-15T07:43:22;9.40;99.90
30628;DHT22;17394;50.890;4.724;2022-11-15T07:45:48;9.40;99.90
30628;DHT22;17394;50.890;4.724;2022-11-15T07:48:14;9.40;99.90
30628;DHT22;17394;50.890;4.724;2022-11-15T07:50:43;9.50;99.90
30628;DHT22;17394;50.890;4.724;2022-11-15T07:53:09;9.50;99.90
30628;DHT22;17394;50.890;4.724;2022-11-15T07:55:36;9.50;99.90
30628;DHT22;17394;50.890;4.724;2022-11-15T07:58:06;9.50;99.90
30628;DHT22;17394;50.890;4.724;2022-11-15T08:00:32;9.50;99.90
30628;DHT22;17394;50.890;4.724;2022-11-15T08:03:09;9.60;99.90
30628;DHT22;17394;50.890;4.724;2022-11-15T08:05:36;9.60;99.90
30628;DHT22;17394;50.890;4.724;2022-11-15T08:08:03;9.60;99.90
30628;DHT22;17394;50.890;4.724;2022-11-15T08:10:29;9.60;99.90
30628;DHT22;17394;50.890;4.724;2022-11-15T08:12:59;9.60;99.90
30628;DHT22;17394;50.890;4.724;2022-11-15T08:15:26;9.60;99.90
30628;DHT22;17394;50.890;4.724;2022-11-15T08:18:00;9.70;99.90
30628;DHT22;17394;50.890;4.724;2022-11-15T08:20:27;9.70;99.90
30628;DHT22;17394;50.890;4.724;2022-11-15T08:23:00;9.70;99.90
30628;DHT22;17394;50.890;4.724;2022-11-15T08:25:28;9.80;99.90
30628;DHT22;17394;50.890;4.724;2022-11-15T08:27:56;9.90;99.90
30628;DHT22;17394;50.890;4.724;2022-11-15T08:30:22;10.00;99.90
30628;DHT22;17394;50.890;4.724;2022-11-15T08:32:49;10.10;99.90
30628;DHT22;17394;50.890;4.724;2022-11-15T08:35:16;10.20;99.90
30628;DHT22;17394;50.890;4.724;2022-11-15T08:37:42;10.30;99.90
30628;DHT22;17394;50.890;4.724;2022-11-15T08:40:08;10.40;99.90
30628;DHT22;17394;50.890;4.724;2022-11-15T08:42:35;10.50;99.90
30628;DHT22;17394;50.890;4.724;2022-11-15T08:45:01;10.60;99.90
30628;DHT22;17394;50.890;4.724;2022-11-15T08:47:27;10.70;99.90
30628;DHT22;17394;50.890;4.724;2022-11-15T08:49:53;10.80;99.90
30628;DHT22;17394;50.890;4.724;2022-11-15T08:52:19;10.80;99.90
30628;DHT22;17394;50.890;4.724;2022-11-15T08:54:44;10.80;99.90
30628;DHT22;17394;50.890;4.724;2022-11-15T08:57:10;10.80;99.90
30628;DHT22;17394;50.890;4.724;2022-11-15T08:59:36;10.80;99.90
30628;DHT22;17394;50.890;4.724;2022-11-15T09:02:03;10.70;99.90
30628;DHT22;17394;50.890;4.724;2022-11-15T09:04:29;10.80;99.90
30628;DHT22;17394;50.890;4.724;2022-11-15T09:06:55;10.80;99.90
30628;DHT22;17394;50.890;4.724;2022-11-15T09:09:21;10.80;99.90
30628;DHT22;17394;50.890;4.724;2022-11-15T09:11:47;10.90;99.90
30628;DHT22;17394;50.890;4.724;2022-11-15T09:14:13;10.90;99.90
30628;DHT22;17394;50.890;4.724;2022-11-15T09:16:39;10.90;99.90
30628;DHT22;17394;50.890;4.724;2022-11-15T09:19:05;10.90;99.90
30628;DHT22;17394;50.890;4.724;2022-11-15T09:21:32;11.10;99.90
30628;DHT22;17394;50.890;4.724;2022-11-15T09:23:57;11.30;99.90
30628;DHT22;17394;50.890;4.724;2022-11-15T09:26:23;11.40;99.90
30628;DHT22;17394;50.890;4.724;2022-11-15T09:28:49;11.60;99.90
30628;DHT22;17394;50.890;4.724;2022-11-15T09:31:15;11.70;99.90
30628;DHT22;17394;50.890;4.724;2022-11-15T09:33:45;11.80;99.90
30628;DHT22;17394;50.890;4.724;2022-11-15T09:36:12;11.90;99.90
30628;DHT22;17394;50.890;4.724;2022-11-15T09:38:38;12.00;99.90
30628;DHT22;17394;50.890;4.724;2022-11-15T09:49:25;12.50;99.90
30628;DHT22;17394;50.890;4.724;2022-11-15T09:51:53;12.50;99.90
30628;DHT22;17394;50.890;4.724;2022-11-15T09:54:36;12.60;99.90
30628;DHT22;17394;50.890;4.724;2022-11-15T10:05:00;13.10;99.90
30628;DHT22;17394;50.890;4.724;2022-11-15T10:08:01;13.10;99.90
30628;DHT22;17394;50.890;4.724;2022-11-15T10:12:57;13.30;99.90
30628;DHT22;17394;50.890;4.724;2022-11-15T10:15:23;13.20;99.90
30628;DHT22;17394;50.890;4.724;2022-11-15T10:18:09;13.20;99.90
30628;DHT22;17394;50.890;4.724;2022-11-15T10:20:52;13.20;99.90
30628;DHT22;17394;50.890;4.724;2022-11-15T10:23:22;13.10;99.90
30628;DHT22;17394;50.890;4.724;2022-11-15T10:25:52;13.00;99.90
30628;DHT22;17394;50.890;4.724;2022-11-15T10:28:27;13.00;99.90
30628;DHT22;17394;50.890;4.724;2022-11-15T10:31:00;12.90;99.90
30628;DHT22;17394;50.890;4.724;2022-11-15T10:33:35;12.90;99.90
30628;DHT22;17394;50.890;4.724;2022-11-15T10:36:16;12.90;99.90
30628;DHT22;17394;50.890;4.724;2022-11-15T10:43:42;12.70;99.90
30628;DHT22;17394;50.890;4.724;2022-11-15T10:46:28;12.80;99.90
30628;DHT22;17394;50.890;4.724;2022-11-15T10:49:15;12.80;99.90
30628;DHT22;17394;50.890;4.724;2022-11-15T10:56:54;13.00;99.90
30628;DHT22;17394;50.890;4.724;2022-11-15T10:59:28;13.00;99.90
30628;DHT22;17394;50.890;4.724;2022-11-15T11:01:54;13.00;99.90
30628;DHT22;17394;50.890;4.724;2022-11-15T11:04:20;13.00;99.90
30628;DHT22;17394;50.890;4.724;2022-11-15T11:06:59;13.00;99.90
30628;DHT22;17394;50.890;4.724;2022-11-15T11:09:33;13.00;99.90
30628;DHT22;17394;50.890;4.724;2022-11-15T11:12:00;13.00;99.90
30628;DHT22;17394;50.890;4.724;2022-11-15T11:14:34;13.00;99.90
30628;DHT22;17394;50.890;4.724;2022-11-15T11:17:30;13.00;99.90
30628;DHT22;17394;50.890;4.724;2022-11-15T11:23:02;13.00;99.90
30628;DHT22;17394;50.890;4.724;2022-11-15T11:25:35;13.10;99.90
30628;DHT22;17394;50.890;4.724;2022-11-15T11:34:19;13.00;99.90
30628;DHT22;17394;50.890;4.724;2022-11-15T11:42:30;13.10;99.90
30628;DHT22;17394;50.890;4.724;2022-11-15T11:48:00;13.20;99.90
30628;DHT22;17394;50.890;4.724;2022-11-15T11:50:29;13.20;99.90
30628;DHT22;17394;50.890;4.724;2022-11-15T11:53:42;13.30;99.90
30628;DHT22;17394;50.890;4.724;2022-11-15T11:55:52;13.30;99.90
30628;DHT22;17394;50.890;4.724;2022-11-15T11:58:42;13.30;99.90
30628;DHT22;17394;50.890;4.724;2022-11-15T12:01:24;13.30;99.90
30628;DHT22;17394;50.890;4.724;2022-11-15T12:04:18;13.30;99.90
30628;DHT22;17394;50.890;4.724;2022-11-15T12:07:04;13.30;99.90
30628;DHT22;17394;50.890;4.724;2022-11-15T12:09:51;13.30;99.90
30628;DHT22;17394;50.890;4.724;2022-11-15T12:12:32;13.40;99.90
30628;DHT22;17394;50.890;4.724;2022-11-15T12:17:37;13.50;99.90
30628;DHT22;17394;50.890;4.724;2022-11-15T12:20:16;13.50;99.90
30628;DHT22;17394;50.890;4.724;2022-11-15T12:22:58;13.50;99.90
30628;DHT22;17394;50.890;4.724;2022-11-15T12:28:19;13.50;99.90
30628;DHT22;17394;50.890;4.724;2022-11-15T12:30:56;13.60;99.90
30628;DHT22;17394;50.890;4.724;2022-11-15T12:33:35;13.60;99.90
30628;DHT22;17394;50.890;4.724;2022-11-15T12:41:21;13.60;99.90
30628;DHT22;17394;50.890;4.724;2022-11-15T12:43:48;13.60;99.90
30628;DHT22;17394;50.890;4.724;2022-11-15T12:59:49;13.50;99.90
30628;DHT22;17394;50.890;4.724;2022-11-15T13:03:12;13.50;99.90
30628;DHT22;17394;50.890;4.724;2022-11-15T13:12:54;13.50;99.90
30628;DHT22;17394;50.890;4.724;2022-11-15T13:20:20;13.70;99.90
30628;DHT22;17394;50.890;4.724;2022-11-15T13:23:02;13.80;99.90
30628;DHT22;17394;50.890;4.724;2022-11-15T13:28:27;13.90;99.90
30628;DHT22;17394;50.890;4.724;2022-11-15T13:30:56;13.90;99.90
30628;DHT22;17394;50.890;4.724;2022-11-15T13:36:02;13.90;99.90
30628;DHT22;17394;50.890;4.724;2022-11-15T13:38:31;13.90;99.90
30628;DHT22;17394;50.890;4.724;2022-11-15T13:40:59;13.90;99.90
30628;DHT22;17394;50.890;4.724;2022-11-15T13:43:35;13.80;99.90
30628;DHT22;17394;50.890;4.724;2022-11-15T13:46:24;13.90;99.90
30628;DHT22;17394;50.890;4.724;2022-11-15T13:49:02;13.80;99.90
30628;DHT22;17394;50.890;4.724;2022-11-15T13:56:41;13.80;99.90
30628;DHT22;17394;50.890;4.724;2022-11-15T13:59:31;13.70;99.90
30628;DHT22;17394;50.890;4.724;2022-11-15T14:01:57;13.70;99.90
30628;DHT22;17394;50.890;4.724;2022-11-15T14:04:25;13.70;99.90
30628;DHT22;17394;50.890;4.724;2022-11-15T14:06:56;13.70;99.90
30628;DHT22;17394;50.890;4.724;2022-11-15T14:11:59;13.70;99.90
30628;DHT22;17394;50.890;4.724;2022-11-15T14:14:27;13.70;99.90
30628;DHT22;17394;50.890;4.724;2022-11-15T14:16:58;13.80;99.90
30628;DHT22;17394;50.890;4.724;2022-11-15T14:22:10;13.70;99.90
30628;DHT22;17394;50.890;4.724;2022-11-15T14:24:36;13.80;99.90
30628;DHT22;17394;50.890;4.724;2022-11-15T14:29:46;13.80;99.90
30628;DHT22;17394;50.890;4.724;2022-11-15T14:34:38;13.70;99.90
30628;DHT22;17394;50.890;4.724;2022-11-15T14:37:04;13.70;99.90
30628;DHT22;17394;50.890;4.724;2022-11-15T14:39:30;13.60;99.90
30628;DHT22;17394;50.890;4.724;2022-11-15T14:41:56;13.60;99.90
30628;DHT22;17394;50.890;4.724;2022-11-15T14:44:22;13.50;99.90
30628;DHT22;17394;50.890;4.724;2022-11-15T14:46:47;13.50;99.90
30628;DHT22;17394;50.890;4.724;2022-11-15T14:49:14;13.40;99.90
30628;DHT22;17394;50.890;4.724;2022-11-15T14:51:40;13.30;99.90
30628;DHT22;17394;50.890;4.724;2022-11-15T14:54:10;13.30;99.90
30628;DHT22;17394;50.890;4.724;2022-11-15T14:56:36;13.20;99.90
30628;DHT22;17394;50.890;4.724;2022-11-15T14:59:01;13.20;99.90
30628;DHT22;17394;50.890;4.724;2022-11-15T15:01:27;13.10;99.90
30628;DHT22;17394;50.890;4.724;2022-11-15T15:03:53;13.10;99.90
30628;DHT22;17394;50.890;4.724;2022-11-15T15:06:22;13.10;99.90
30628;DHT22;17394;50.890;4.724;2022-11-15T15:08:48;13.10;99.90
30628;DHT22;17394;50.890;4.724;2022-11-15T15:11:25;13.10;99.90
30628;DHT22;17394;50.890;4.724;2022-11-15T15:13:52;13.00;99.90
30628;DHT22;17394;50.890;4.724;2022-11-15T15:16:18;13.00;99.90
30628;DHT22;17394;50.890;4.724;2022-11-15T15:18:44;13.00;99.90
30628;DHT22;17394;50.890;4.724;2022-11-15T15:21:28;12.90;99.90
30628;DHT22;17394;50.890;4.724;2022-11-15T15:23:56;12.90;99.90
30628;DHT22;17394;50.890;4.724;2022-11-15T15:26:25;12.90;99.90
30628;DHT22;17394;50.890;4.724;2022-11-15T15:28:51;12.90;99.90
30628;DHT22;17394;50.890;4.724;2022-11-15T15:31:18;12.90;99.90
30628;DHT22;17394;50.890;4.724;2022-11-15T15:33:44;12.80;99.90
30628;DHT22;17394;50.890;4.724;2022-11-15T15:36:16;12.80;99.90
30628;DHT22;17394;50.890;4.724;2022-11-15T15:38:42;12.80;99.90
30628;DHT22;17394;50.890;4.724;2022-11-15T15:41:12;12.70;99.90
30628;DHT22;17394;50.890;4.724;2022-11-15T15:43:38;12.70;99.90
30628;DHT22;17394;50.890;4.724;2022-11-15T15:46:07;12.70;99.90
30628;DHT22;17394;50.890;4.724;2022-11-15T15:48:33;12.60;99.90
30628;DHT22;17394;50.890;4.724;2022-11-15T15:51:02;12.60;99.90
30628;DHT22;17394;50.890;4.724;2022-11-15T15:53:28;12.60;99.90
30628;DHT22;17394;50.890;4.724;2022-11-15T15:55:54;12.60;99.90
30628;DHT22;17394;50.890;4.724;2022-11-15T15:58:20;12.60;99.90
30628;DHT22;17394;50.890;4.724;2022-11-15T16:00:46;12.50;99.90
30628;DHT22;17394;50.890;4.724;2022-11-15T16:03:11;12.50;99.90
30628;DHT22;17394;50.890;4.724;2022-11-15T16:05:37;12.50;99.90
30628;DHT22;17394;50.890;4.724;2022-11-15T16:08:03;12.50;99.90
30628;DHT22;17394;50.890;4.724;2022-11-15T16:10:32;12.40;99.90
30628;DHT22;17394;50.890;4.724;2022-11-15T16:12:59;12.40;99.90
30628;DHT22;17394;50.890;4.724;2022-11-15T16:15:30;12.40;99.90
30628;DHT22;17394;50.890;4.724;2022-11-15T16:18:00;12.40;99.90
30628;DHT22;17394;50.890;4.724;2022-11-15T16:22:55;12.30;99.90
30628;DHT22;17394;50.890;4.724;2022-11-15T16:25:21;12.30;99.90
30628;DHT22;17394;50.890;4.724;2022-11-15T16:27:47;12.30;99.90
30628;DHT22;17394;50.890;4.724;2022-11-15T16:30:15;12.20;99.90
30628;DHT22;17394;50.890;4.724;2022-11-15T16:32:42;12.30;99.90
30628;DHT22;17394;50.890;4.724;2022-11-15T16:35:11;12.20;99.90
30628;DHT22;17394;50.890;4.724;2022-11-15T16:37:38;12.20;99.90
30628;DHT22;17394;50.890;4.724;2022-11-15T16:40:27;12.20;99.90
30628;DHT22;17394;50.890;4.724;2022-11-15T16:42:53;12.20;99.90
30628;DHT22;17394;50.890;4.724;2022-11-15T16:45:21;12.20;99.90
30628;DHT22;17394;50.890;4.724;2022-11-15T16:47:47;12.20;99.90
30628;DHT22;17394;50.890;4.724;2022-11-15T16:50:25;12.20;99.90
30628;DHT22;17394;50.890;4.724;2022-11-15T16:52:56;12.20;99.90
30628;DHT22;17394;50.890;4.724;2022-11-15T16:55:23;12.20;99.90
30628;DHT22;17394;50.890;4.724;2022-11-15T16:57:50;12.20;99.90
30628;DHT22;17394;50.890;4.724;2022-11-15T17:00:17;12.20;99.90
30628;DHT22;17394;50.890;4.724;2022-11-15T17:02:45;12.20;99.90
30628;DHT22;17394;50.890;4.724;2022-11-15T17:05:11;12.20;99.90
30628;DHT22;17394;50.890;4.724;2022-11-15T17:07:38;12.20;99.90
30628;DHT22;17394;50.890;4.724;2022-11-15T17:10:05;12.20;99.90
30628;DHT22;17394;50.890;4.724;2022-11-15T17:12:33;12.20;99.90
30628;DHT22;17394;50.890;4.724;2022-11-15T17:14:59;12.20;99.90
30628;DHT22;17394;50.890;4.724;2022-11-15T17:17:28;12.20;99.90
30628;DHT22;17394;50.890;4.724;2022-11-15T17:20:02;12.20;99.90
30628;DHT22;17394;50.890;4.724;2022-11-15T17:22:42;12.20;99.90
30628;DHT22;17394;50.890;4.724;2022-11-15T17:25:13;12.20;99.90
30628;DHT22;17394;50.890;4.724;2022-11-15T17:28:12;12.20;99.90
30628;DHT22;17394;50.890;4.724;2022-11-15T17:30:41;12.20;99.90
30628;DHT22;17394;50.890;4.724;2022-11-15T17:33:07;12.20;99.90
30628;DHT22;17394;50.890;4.724;2022-11-15T17:35:33;12.20;99.90
30628;DHT22;17394;50.890;4.724;2022-11-15T17:37:59;12.20;99.90
30628;DHT22;17394;50.890;4.724;2022-11-15T17:40:25;12.30;99.90
30628;DHT22;17394;50.890;4.724;2022-11-15T17:42:51;12.30;99.90
30628;DHT22;17394;50.890;4.724;2022-11-15T17:45:17;12.30;99.90
30628;DHT22;17394;50.890;4.724;2022-11-15T17:47:43;12.30;99.90
30628;DHT22;17394;50.890;4.724;2022-11-15T17:50:09;12.30;99.90
30628;DHT22;17394;50.890;4.724;2022-11-15T17:52:36;12.30;99.90
30628;DHT22;17394;50.890;4.724;2022-11-15T17:55:02;12.20;99.90
30628;DHT22;17394;50.890;4.724;2022-11-15T17:57:28;12.20;99.90
30628;DHT22;17394;50.890;4.724;2022-11-15T17:59:53;12.20;99.90
30628;DHT22;17394;50.890;4.724;2022-11-15T18:02:19;12.20;99.90